sensor_id;sensor_type;location;lat;lon;timestamp;temperature;humidity
27559;DHT22;15002;52.028;5.670;2024-01-15T00:00:55;5.00;99.90
27559;DHT22;15002;52.028;5.670;2024-01-15T00:03:21;5.10;99.90
27559;DHT22;15002;52.028;5.670;2024-01-15T00:05:46;5.10;99.90
27559;DHT22;15002;52.028;5.670;2024-01-15T00:08:12;5.10;99.90
27559;DHT22;15002;52.028;5.670;2024-01-15T00:10:38;5.20;99.90
27559;DHT22;15002;52.028;5.670;2024-01-15T00:13:05;5.10;99.90
27559;DHT22;15002;52.028;5.670;2024-01-15T00:15:31;5.00;99.90
27559;DHT22;15002;52.028;5.670;2024-01-15T00:17:57;5.00;99.90
27559;DHT22;15002;52.028;5.670;2024-01-15T00:20:22;4.70;99.90
27559;DHT22;15002;52.028;5.670;2024-01-15T00:22:48;4.80;99.90
27559;DHT22;15002;52.028;5.670;2024-01-15T00:25:13;5.00;99.90
27559;DHT22;15002;52.028;5.670;2024-01-15T00:27:39;5.00;99.90
27559;DHT22;15002;52.028;5.670;2024-01-15T00:30:05;4.90;99.90
27559;DHT22;15002;52.028;5.670;2024-01-15T00:32:31;4.80;99.90
27559;DHT22;15002;52.028;5.670;2024-01-15T00:34:57;4.70;99.90
27559;DHT22;15002;52.028;5.670;2024-01-15T00:37:22;4.70;99.90
27559;DHT22;15002;52.028;5.670;2024-01-15T00:39:48;4.80;99.90
27559;DHT22;15002;52.028;5.670;2024-01-15T00:42:13;4.50;99.90
27559;DHT22;15002;52.028;5.670;2024-01-15T00:44:39;4.60;99.90
27559;DHT22;15002;52.028;5.670;2024-01-15T00:47:05;4.40;99.90
27559;DHT22;15002;52.028;5.670;2024-01-15T00:49:30;4.50;99.90
27559;DHT22;15002;52.028;5.670;2024-01-15T00:51:56;4.40;99.90
27559;DHT22;15002;52.028;5.670;2024-01-15T00:54:22;4.30;99.90
27559;DHT22;15002;52.028;5.670;2024-01-15T00:56:47;4.30;99.90
27559;DHT22;15002;52.028;5.670;2024-01-15T00:59:13;4.40;99.90
27559;DHT22;15002;52.028;5.670;2024-01-15T01:01:41;4.40;99.90
27559;DHT22;15002;52.028;5.670;2024-01-15T01:04:09;4.40;99.90
27559;DHT22;15002;52.028;5.670;2024-01-15T01:06:35;4.30;99.90
27559;DHT22;15002;52.028;5.670;2024-01-15T01:09:00;4.30;99.90
27559;DHT22;15002;52.028;5.670;2024-01-15T01:11:26;4.50;99.90
27559;DHT22;15002;52.028;5.670;2024-01-15T01:13:52;4.50;99.90
27559;DHT22;15002;52.028;5.670;2024-01-15T01:16:17;4.40;99.90
27559;DHT22;15002;52.028;5.670;2024-01-15T01:18:43;4.30;99.90
27559;DHT22;15002;52.028;5.670;2024-01-15T01:21:08;4.30;99.90
27559;DHT22;15002;52.028;5.670;2024-01-15T01:23:34;4.30;99.90
27559;DHT22;15002;52.028;5.670;2024-01-15T01:26:00;4.30;99.90
27559;DHT22;15002;52.028;5.670;2024-01-15T01:28:25;4.10;99.90
27559;DHT22;15002;52.028;5.670;2024-01-15T01:30:51;4.30;99.90
27559;DHT22;15002;52.028;5.670;2024-01-15T01:33:16;4.30;99.90
27559;DHT22;15002;52.028;5.670;2024-01-15T01:35:42;4.50;99.90
27559;DHT22;15002;52.028;5.670;2024-01-15T01:38:09;4.40;99.90
27559;DHT22;15002;52.028;5.670;2024-01-15T01:40:34;4.40;99.90
27559;DHT22;15002;52.028;5.670;2024-01-15T01:43:00;4.50;99.90
27559;DHT22;15002;52.028;5.670;2024-01-15T01:45:25;4.50;99.90
27559;DHT22;15002;52.028;5.670;2024-01-15T01:47:51;4.40;99.90
27559;DHT22;15002;52.028;5.670;2024-01-15T01:50:17;4.50;99.90
27559;DHT22;15002;52.028;5.670;2024-01-15T01:52:43;4.40;99.90
27559;DHT22;15002;52.028;5.670;2024-01-15T01:55:09;4.40;99.90
27559;DHT22;15002;52.028;5.670;2024-01-15T01:57:36;4.30;99.90
27559;DHT22;15002;52.028;5.670;2024-01-15T02:00:03;4.40;99.90
27559;DHT22;15002;52.028;5.670;2024-01-15T02:02:30;4.50;99.90
27559;DHT22;15002;52.028;5.670;2024-01-15T02:04:56;4.50;99.90
27559;DHT22;15002;52.028;5.670;2024-01-15T02:07:22;4.40;99.90
27559;DHT22;15002;52.028;5.670;2024-01-15T02:09:49;4.40;99.90
27559;DHT22;15002;52.028;5.670;2024-01-15T02:12:15;4.40;99.90
27559;DHT22;15002;52.028;5.670;2024-01-15T02:14:41;4.30;99.90
27559;DHT22;15002;52.028;5.670;2024-01-15T02:17:06;4.30;99.90
27559;DHT22;15002;52.028;5.670;2024-01-15T02:19:32;4.30;99.90
27559;DHT22;15002;52.028;5.670;2024-01-15T02:21:58;4.10;99.90
27559;DHT22;15002;52.028;5.670;2024-01-15T02:24:23;4.00;99.90
27559;DHT22;15002;52.028;5.670;2024-01-15T02:26:49;4.30;99.90
27559;DHT22;15002;52.028;5.670;2024-01-15T02:29:15;4.20;99.90
27559;DHT22;15002;52.028;5.670;2024-01-15T02:31:41;4.40;99.90
27559;DHT22;15002;52.028;5.670;2024-01-15T02:34:06;4.40;99.90
27559;DHT22;15002;52.028;5.670;2024-01-15T02:36:32;4.50;99.90
27559;DHT22;15002;52.028;5.670;2024-01-15T02:38:58;4.50;99.90
27559;DHT22;15002;52.028;5.670;2024-01-15T02:41:23;4.70;99.90
27559;DHT22;15002;52.028;5.670;2024-01-15T02:43:49;4.80;99.90
27559;DHT22;15002;52.028;5.670;2024-01-15T02:46:14;4.80;99.90
27559;DHT22;15002;52.028;5.670;2024-01-15T02:48:41;4.90;99.90
27559;DHT22;15002;52.028;5.670;2024-01-15T02:51:07;4.80;99.90
27559;DHT22;15002;52.028;5.670;2024-01-15T02:53:32;5.00;99.90
27559;DHT22;15002;52.028;5.670;2024-01-15T02:55:58;5.00;99.90
27559;DHT22;15002;52.028;5.670;2024-01-15T02:58:24;4.80;99.90
27559;DHT22;15002;52.028;5.670;2024-01-15T03:00:49;4.70;99.90
27559;DHT22;15002;52.028;5.670;2024-01-15T03:03:15;4.60;99.90
27559;DHT22;15002;52.028;5.670;2024-01-15T03:05:40;4.80;99.90
27559;DHT22;15002;52.028;5.670;2024-01-15T03:08:06;4.80;99.90
27559;DHT22;15002;52.028;5.670;2024-01-15T03:10:32;4.50;99.90
27559;DHT22;15002;52.028;5.670;2024-01-15T03:12:57;4.70;99.90
27559;DHT22;15002;52.028;5.670;2024-01-15T03:15:23;4.70;99.90
27559;DHT22;15002;52.028;5.670;2024-01-15T03:17:48;4.70;99.90
27559;DHT22;15002;52.028;5.670;2024-01-15T03:20:14;4.70;99.90
27559;DHT22;15002;52.028;5.670;2024-01-15T03:22:40;4.60;99.90
27559;DHT22;15002;52.028;5.670;2024-01-15T03:25:06;4.60;99.90
27559;DHT22;15002;52.028;5.670;2024-01-15T03:27:32;4.80;99.90
27559;DHT22;15002;52.028;5.670;2024-01-15T03:29:57;4.60;99.90
27559;DHT22;15002;52.028;5.670;2024-01-15T03:32:23;4.40;99.90
27559;DHT22;15002;52.028;5.670;2024-01-15T03:34:49;4.20;99.90
27559;DHT22;15002;52.028;5.670;2024-01-15T03:37:14;4.30;99.90
27559;DHT22;15002;52.028;5.670;2024-01-15T03:39:40;4.40;99.90
27559;DHT22;15002;52.028;5.670;2024-01-15T03:42:06;4.40;99.90
27559;DHT22;15002;52.028;5.670;2024-01-15T03:44:32;4.40;99.90
27559;DHT22;15002;52.028;5.670;2024-01-15T03:46:57;4.30;99.90
27559;DHT22;15002;52.028;5.670;2024-01-15T03:49:23;4.30;99.90
27559;DHT22;15002;52.028;5.670;2024-01-15T03:51:49;4.30;99.90
27559;DHT22;15002;52.028;5.670;2024-01-15T03:54:15;4.30;99.90
27559;DHT22;15002;52.028;5.670;2024-01-15T03:56:40;4.30;99.90
27559;DHT22;15002;52.028;5.670;2024-01-15T03:59:06;4.30;99.90
27559;DHT22;15002;52.028;5.670;2024-01-15T04:01:32;4.40;99.90
27559;DHT22;15002;52.028;5.670;2024-01-15T04:03:57;4.50;99.90
27559;DHT22;15002;52.028;5.670;2024-01-15T04:06:23;4.50;99.90
27559;DHT22;15002;52.028;5.670;2024-01-15T04:08:48;4.70;99.90
27559;DHT22;15002;52.028;5.670;2024-01-15T04:11:14;4.80;99.90
27559;DHT22;15002;52.028;5.670;2024-01-15T04:13:39;4.70;99.90
27559;DHT22;15002;52.028;5.670;2024-01-15T04:16:05;4.50;99.90
27559;DHT22;15002;52.028;5.670;2024-01-15T04:18:31;4.50;99.90
27559;DHT22;15002;52.028;5.670;2024-01-15T04:20:56;4.40;99.90
27559;DHT22;15002;52.028;5.670;2024-01-15T04:23:22;4.40;99.90
27559;DHT22;15002;52.028;5.670;2024-01-15T04:25:47;4.40;99.90
27559;DHT22;15002;52.028;5.670;2024-01-15T04:28:13;4.30;99.90
27559;DHT22;15002;52.028;5.670;2024-01-15T04:30:39;4.40;99.90
27559;DHT22;15002;52.028;5.670;2024-01-15T04:33:04;4.40;99.90
27559;DHT22;15002;52.028;5.670;2024-01-15T04:35:31;4.40;99.90
27559;DHT22;15002;52.028;5.670;2024-01-15T04:37:56;4.30;99.90
27559;DHT22;15002;52.028;5.670;2024-01-15T04:40:22;4.20;99.90
27559;DHT22;15002;52.028;5.670;2024-01-15T04:42:48;4.20;99.90
27559;DHT22;15002;52.028;5.670;2024-01-15T04:45:14;4.00;99.90
27559;DHT22;15002;52.028;5.670;2024-01-15T04:47:39;4.00;99.90
27559;DHT22;15002;52.028;5.670;2024-01-15T04:50:05;4.10;99.90
27559;DHT22;15002;52.028;5.670;2024-01-15T04:52:31;4.10;99.90
27559;DHT22;15002;52.028;5.670;2024-01-15T04:54:57;4.30;99.90
27559;DHT22;15002;52.028;5.670;2024-01-15T04:57:23;4.30;99.90
27559;DHT22;15002;52.028;5.670;2024-01-15T04:59:49;4.20;99.90
27559;DHT22;15002;52.028;5.670;2024-01-15T05:02:14;4.10;99.90
27559;DHT22;15002;52.028;5.670;2024-01-15T05:04:40;4.10;99.90
27559;DHT22;15002;52.028;5.670;2024-01-15T05:07:05;4.10;99.90
27559;DHT22;15002;52.028;5.670;2024-01-15T05:09:31;4.10;99.90
27559;DHT22;15002;52.028;5.670;2024-01-15T05:11:57;4.00;99.90
27559;DHT22;15002;52.028;5.670;2024-01-15T05:14:22;4.00;99.90
27559;DHT22;15002;52.028;5.670;2024-01-15T05:16:49;4.00;99.90
27559;DHT22;15002;52.028;5.670;2024-01-15T05:19:14;4.00;99.90
27559;DHT22;15002;52.028;5.670;2024-01-15T05:21:40;4.00;99.90
27559;DHT22;15002;52.028;5.670;2024-01-15T05:24:07;3.90;99.90
27559;DHT22;15002;52.028;5.670;2024-01-15T05:26:33;3.90;99.90
27559;DHT22;15002;52.028;5.670;2024-01-15T05:28:59;4.00;99.90
27559;DHT22;15002;52.028;5.670;2024-01-15T05:31:24;4.20;99.90
27559;DHT22;15002;52.028;5.670;2024-01-15T05:33:50;4.20;99.90
27559;DHT22;15002;52.028;5.670;2024-01-15T05:36:16;4.50;99.90
27559;DHT22;15002;52.028;5.670;2024-01-15T05:38:41;4.30;99.90
27559;DHT22;15002;52.028;5.670;2024-01-15T05:41:07;4.40;99.90
27559;DHT22;15002;52.028;5.670;2024-01-15T05:43:33;4.30;99.90
27559;DHT22;15002;52.028;5.670;2024-01-15T05:45:58;4.30;99.90
27559;DHT22;15002;52.028;5.670;2024-01-15T05:48:24;4.30;99.90
27559;DHT22;15002;52.028;5.670;2024-01-15T05:50:50;4.20;99.90
27559;DHT22;15002;52.028;5.670;2024-01-15T05:53:15;4.20;99.90
27559;DHT22;15002;52.028;5.670;2024-01-15T05:55:41;4.20;99.90
27559;DHT22;15002;52.028;5.670;2024-01-15T05:58:07;4.30;99.90
27559;DHT22;15002;52.028;5.670;2024-01-15T06:00:32;4.40;99.90
27559;DHT22;15002;52.028;5.670;2024-01-15T06:02:59;4.50;99.90
27559;DHT22;15002;52.028;5.670;2024-01-15T06:05:25;4.60;99.90
27559;DHT22;15002;52.028;5.670;2024-01-15T06:07:51;4.80;99.90
27559;DHT22;15002;52.028;5.670;2024-01-15T06:10:16;4.90;99.90
27559;DHT22;15002;52.028;5.670;2024-01-15T06:12:43;5.00;99.90
27559;DHT22;15002;52.028;5.670;2024-01-15T06:15:09;4.90;99.90
27559;DHT22;15002;52.028;5.670;2024-01-15T06:17:35;4.80;99.90
27559;DHT22;15002;52.028;5.670;2024-01-15T06:20:01;4.90;99.90
27559;DHT22;15002;52.028;5.670;2024-01-15T06:22:26;4.80;99.90
27559;DHT22;15002;52.028;5.670;2024-01-15T06:24:52;4.70;99.90
27559;DHT22;15002;52.028;5.670;2024-01-15T06:27:17;4.90;99.90
27559;DHT22;15002;52.028;5.670;2024-01-15T06:29:45;4.80;99.90
27559;DHT22;15002;52.028;5.670;2024-01-15T06:32:12;4.60;99.90
27559;DHT22;15002;52.028;5.670;2024-01-15T06:34:38;4.70;99.90
27559;DHT22;15002;52.028;5.670;2024-01-15T06:37:03;4.60;99.90
27559;DHT22;15002;52.028;5.670;2024-01-15T06:39:29;4.50;99.90
27559;DHT22;15002;52.028;5.670;2024-01-15T06:41:55;4.40;99.90
27559;DHT22;15002;52.028;5.670;2024-01-15T06:44:20;4.40;99.90
27559;DHT22;15002;52.028;5.670;2024-01-15T06:46:47;4.40;99.90
27559;DHT22;15002;52.028;5.670;2024-01-15T06:49:13;4.30;99.90
27559;DHT22;15002;52.028;5.670;2024-01-15T06:51:39;4.20;99.90
27559;DHT22;15002;52.028;5.670;2024-01-15T06:54:05;4.20;99.90
27559;DHT22;15002;52.028;5.670;2024-01-15T06:56:31;4.30;99.90
27559;DHT22;15002;52.028;5.670;2024-01-15T06:58:57;4.20;99.90
27559;DHT22;15002;52.028;5.670;2024-01-15T07:01:23;4.30;99.90
27559;DHT22;15002;52.028;5.670;2024-01-15T07:03:49;4.30;99.90
27559;DHT22;15002;52.028;5.670;2024-01-15T07:06:14;4.30;99.90
27559;DHT22;15002;52.028;5.670;2024-01-15T07:08:40;4.20;99.90
27559;DHT22;15002;52.028;5.670;2024-01-15T07:11:07;4.30;99.90
27559;DHT22;15002;52.028;5.670;2024-01-15T07:13:34;4.30;99.90
27559;DHT22;15002;52.028;5.670;2024-01-15T07:15:59;4.20;99.90
27559;DHT22;15002;52.028;5.670;2024-01-15T07:18:25;4.20;99.90
27559;DHT22;15002;52.028;5.670;2024-01-15T07:20:51;4.30;99.90
27559;DHT22;15002;52.028;5.670;2024-01-15T07:23:17;4.20;99.90
27559;DHT22;15002;52.028;5.670;2024-01-15T07:25:43;4.20;99.90
27559;DHT22;15002;52.028;5.670;2024-01-15T07:28:09;4.30;99.90
27559;DHT22;15002;52.028;5.670;2024-01-15T07:30:34;4.20;99.90
27559;DHT22;15002;52.028;5.670;2024-01-15T07:33:00;4.20;99.90
27559;DHT22;15002;52.028;5.670;2024-01-15T07:35:26;4.20;99.90
27559;DHT22;15002;52.028;5.670;2024-01-15T07:37:52;4.10;99.90
27559;DHT22;15002;52.028;5.670;2024-01-15T07:40:17;4.40;99.90
27559;DHT22;15002;52.028;5.670;2024-01-15T07:42:43;4.40;99.90
27559;DHT22;15002;52.028;5.670;2024-01-15T07:45:10;4.50;99.90
27559;DHT22;15002;52.028;5.670;2024-01-15T07:47:36;4.50;99.90
27559;DHT22;15002;52.028;5.670;2024-01-15T07:50:02;4.40;99.90
27559;DHT22;15002;52.028;5.670;2024-01-15T07:52:28;4.40;99.90
27559;DHT22;15002;52.028;5.670;2024-01-15T07:54:53;4.30;99.90
27559;DHT22;15002;52.028;5.670;2024-01-15T07:57:20;4.30;99.90
27559;DHT22;15002;52.028;5.670;2024-01-15T07:59:46;4.20;99.90
27559;DHT22;15002;52.028;5.670;2024-01-15T08:02:11;4.20;99.90
27559;DHT22;15002;52.028;5.670;2024-01-15T08:04:37;4.30;99.90
27559;DHT22;15002;52.028;5.670;2024-01-15T08:07:06;4.30;99.90
27559;DHT22;15002;52.028;5.670;2024-01-15T08:09:33;4.40;99.90
27559;DHT22;15002;52.028;5.670;2024-01-15T08:11:59;4.40;99.90
27559;DHT22;15002;52.028;5.670;2024-01-15T08:14:25;4.50;99.90
27559;DHT22;15002;52.028;5.670;2024-01-15T08:16:50;4.60;99.90
27559;DHT22;15002;52.028;5.670;2024-01-15T08:19:16;4.70;99.90
27559;DHT22;15002;52.028;5.670;2024-01-15T08:21:42;4.90;99.90
27559;DHT22;15002;52.028;5.670;2024-01-15T08:24:08;4.80;99.90
27559;DHT22;15002;52.028;5.670;2024-01-15T08:26:34;4.80;99.90
27559;DHT22;15002;52.028;5.670;2024-01-15T08:29:00;4.60;99.90
27559;DHT22;15002;52.028;5.670;2024-01-15T08:31:25;4.70;99.90
27559;DHT22;15002;52.028;5.670;2024-01-15T08:33:51;4.60;99.90
27559;DHT22;15002;52.028;5.670;2024-01-15T08:36:17;4.70;99.90
27559;DHT22;15002;52.028;5.670;2024-01-15T08:38:43;4.70;99.90
27559;DHT22;15002;52.028;5.670;2024-01-15T08:41:10;4.50;99.90
27559;DHT22;15002;52.028;5.670;2024-01-15T08:43:35;4.40;99.90
27559;DHT22;15002;52.028;5.670;2024-01-15T08:46:02;4.60;99.90
27559;DHT22;15002;52.028;5.670;2024-01-15T08:48:28;4.60;99.90
27559;DHT22;15002;52.028;5.670;2024-01-15T08:50:54;4.40;99.90
27559;DHT22;15002;52.028;5.670;2024-01-15T08:53:20;4.40;99.90
27559;DHT22;15002;52.028;5.670;2024-01-15T08:55:46;4.60;99.90
27559;DHT22;15002;52.028;5.670;2024-01-15T08:58:13;4.70;99.90
27559;DHT22;15002;52.028;5.670;2024-01-15T09:00:38;4.70;99.90
27559;DHT22;15002;52.028;5.670;2024-01-15T09:03:04;4.70;99.90
27559;DHT22;15002;52.028;5.670;2024-01-15T09:05:30;4.60;99.90
27559;DHT22;15002;52.028;5.670;2024-01-15T09:07:56;4.70;99.90
27559;DHT22;15002;52.028;5.670;2024-01-15T09:10:22;4.90;99.90
27559;DHT22;15002;52.028;5.670;2024-01-15T09:12:47;4.70;99.90
27559;DHT22;15002;52.028;5.670;2024-01-15T09:15:14;4.60;99.90
27559;DHT22;15002;52.028;5.670;2024-01-15T09:17:40;4.60;99.90
27559;DHT22;15002;52.028;5.670;2024-01-15T09:20:07;4.50;99.90
27559;DHT22;15002;52.028;5.670;2024-01-15T09:22:33;4.50;99.90
27559;DHT22;15002;52.028;5.670;2024-01-15T09:24:59;4.50;99.90
27559;DHT22;15002;52.028;5.670;2024-01-15T09:27:25;4.40;99.90
27559;DHT22;15002;52.028;5.670;2024-01-15T09:29:53;4.50;99.90
27559;DHT22;15002;52.028;5.670;2024-01-15T09:32:19;4.40;99.90
27559;DHT22;15002;52.028;5.670;2024-01-15T09:34:48;4.70;99.90
27559;DHT22;15002;52.028;5.670;2024-01-15T09:37:14;4.80;99.90
27559;DHT22;15002;52.028;5.670;2024-01-15T09:39:40;4.80;99.90
27559;DHT22;15002;52.028;5.670;2024-01-15T09:42:06;4.80;99.90
27559;DHT22;15002;52.028;5.670;2024-01-15T09:44:32;5.00;99.90
27559;DHT22;15002;52.028;5.670;2024-01-15T09:46:59;5.20;99.90
27559;DHT22;15002;52.028;5.670;2024-01-15T09:49:25;5.00;99.90
27559;DHT22;15002;52.028;5.670;2024-01-15T09:51:51;5.10;99.90
27559;DHT22;15002;52.028;5.670;2024-01-15T09:54:16;4.90;99.90
27559;DHT22;15002;52.028;5.670;2024-01-15T09:56:46;4.70;99.90
27559;DHT22;15002;52.028;5.670;2024-01-15T09:59:19;4.40;99.90
27559;DHT22;15002;52.028;5.670;2024-01-15T10:01:45;4.30;99.90
27559;DHT22;15002;52.028;5.670;2024-01-15T10:04:13;4.70;99.90
27559;DHT22;15002;52.028;5.670;2024-01-15T10:06:42;4.90;99.90
27559;DHT22;15002;52.028;5.670;2024-01-15T10:09:09;5.10;99.90
27559;DHT22;15002;52.028;5.670;2024-01-15T10:11:34;5.10;99.90
27559;DHT22;15002;52.028;5.670;2024-01-15T10:14:01;5.30;99.90
27559;DHT22;15002;52.028;5.670;2024-01-15T10:16:26;5.10;99.90
27559;DHT22;15002;52.028;5.670;2024-01-15T10:18:52;5.10;99.90
27559;DHT22;15002;52.028;5.670;2024-01-15T10:21:18;5.30;99.90
27559;DHT22;15002;52.028;5.670;2024-01-15T10:23:44;5.30;99.90
27559;DHT22;15002;52.028;5.670;2024-01-15T10:26:10;5.30;99.90
27559;DHT22;15002;52.028;5.670;2024-01-15T10:28:37;5.30;99.90
27559;DHT22;15002;52.028;5.670;2024-01-15T10:31:03;5.70;99.90
27559;DHT22;15002;52.028;5.670;2024-01-15T10:33:30;6.00;99.90
27559;DHT22;15002;52.028;5.670;2024-01-15T10:36:00;6.00;99.90
27559;DHT22;15002;52.028;5.670;2024-01-15T10:38:26;6.00;99.90
27559;DHT22;15002;52.028;5.670;2024-01-15T10:43:18;5.80;99.90
27559;DHT22;15002;52.028;5.670;2024-01-15T10:45:49;5.70;99.90
27559;DHT22;15002;52.028;5.670;2024-01-15T10:48:17;5.50;99.90
27559;DHT22;15002;52.028;5.670;2024-01-15T10:50:44;5.60;99.90
27559;DHT22;15002;52.028;5.670;2024-01-15T10:53:11;6.00;99.90
27559;DHT22;15002;52.028;5.670;2024-01-15T10:55:38;6.00;99.90
27559;DHT22;15002;52.028;5.670;2024-01-15T10:58:05;5.40;99.90
27559;DHT22;15002;52.028;5.670;2024-01-15T11:00:34;5.40;99.90
27559;DHT22;15002;52.028;5.670;2024-01-15T11:03:01;5.50;99.90
27559;DHT22;15002;52.028;5.670;2024-01-15T11:05:27;5.60;99.90
27559;DHT22;15002;52.028;5.670;2024-01-15T11:07:58;5.40;99.90
27559;DHT22;15002;52.028;5.670;2024-01-15T11:10:45;5.40;99.90
27559;DHT22;15002;52.028;5.670;2024-01-15T11:13:21;5.40;99.90
27559;DHT22;15002;52.028;5.670;2024-01-15T11:16:17;5.40;99.90
27559;DHT22;15002;52.028;5.670;2024-01-15T11:19:02;5.50;99.90
27559;DHT22;15002;52.028;5.670;2024-01-15T11:21:29;5.50;99.90
27559;DHT22;15002;52.028;5.670;2024-01-15T11:24:01;5.70;99.90
27559;DHT22;15002;52.028;5.670;2024-01-15T11:29:05;5.60;99.90
27559;DHT22;15002;52.028;5.670;2024-01-15T11:34:06;5.90;99.90
27559;DHT22;15002;52.028;5.670;2024-01-15T11:41:58;5.90;99.90
27559;DHT22;15002;52.028;5.670;2024-01-15T11:44:24;6.00;99.90
27559;DHT22;15002;52.028;5.670;2024-01-15T11:50:00;5.70;99.90
27559;DHT22;15002;52.028;5.670;2024-01-15T11:52:38;5.90;99.90
27559;DHT22;15002;52.028;5.670;2024-01-15T11:55:21;5.70;99.90
27559;DHT22;15002;52.028;5.670;2024-01-15T11:57:51;5.50;99.90
27559;DHT22;15002;52.028;5.670;2024-01-15T12:00:17;5.70;99.90
27559;DHT22;15002;52.028;5.670;2024-01-15T12:02:44;5.80;99.90
27559;DHT22;15002;52.028;5.670;2024-01-15T12:05:11;5.90;99.90
27559;DHT22;15002;52.028;5.670;2024-01-15T12:07:41;5.80;99.90
27559;DHT22;15002;52.028;5.670;2024-01-15T12:12:58;5.90;99.90
27559;DHT22;15002;52.028;5.670;2024-01-15T12:15:29;5.90;99.90
27559;DHT22;15002;52.028;5.670;2024-01-15T12:17:59;6.00;99.90
27559;DHT22;15002;52.028;5.670;2024-01-15T12:20:27;6.20;99.90
27559;DHT22;15002;52.028;5.670;2024-01-15T12:22:53;6.30;99.90
27559;DHT22;15002;52.028;5.670;2024-01-15T12:25:19;6.40;99.90
27559;DHT22;15002;52.028;5.670;2024-01-15T12:27:46;6.50;99.90
27559;DHT22;15002;52.028;5.670;2024-01-15T12:30:13;6.50;99.90
27559;DHT22;15002;52.028;5.670;2024-01-15T12:32:41;6.50;99.90
27559;DHT22;15002;52.028;5.670;2024-01-15T12:35:07;6.50;99.90
27559;DHT22;15002;52.028;5.670;2024-01-15T12:37:36;6.40;99.90
27559;DHT22;15002;52.028;5.670;2024-01-15T12:40:03;6.40;99.90
27559;DHT22;15002;52.028;5.670;2024-01-15T12:42:30;6.40;99.90
27559;DHT22;15002;52.028;5.670;2024-01-15T12:44:56;6.60;99.90
27559;DHT22;15002;52.028;5.670;2024-01-15T12:47:22;6.60;99.90
27559;DHT22;15002;52.028;5.670;2024-01-15T12:49:48;6.50;99.90
27559;DHT22;15002;52.028;5.670;2024-01-15T12:52:19;6.50;99.90
27559;DHT22;15002;52.028;5.670;2024-01-15T12:54:45;6.40;99.90
27559;DHT22;15002;52.028;5.670;2024-01-15T12:57:11;6.40;99.90
27559;DHT22;15002;52.028;5.670;2024-01-15T12:59:36;6.40;99.90
27559;DHT22;15002;52.028;5.670;2024-01-15T13:02:02;6.50;99.90
27559;DHT22;15002;52.028;5.670;2024-01-15T13:04:28;6.60;99.90
27559;DHT22;15002;52.028;5.670;2024-01-15T13:06:55;6.40;99.90
27559;DHT22;15002;52.028;5.670;2024-01-15T13:09:20;6.30;99.90
27559;DHT22;15002;52.028;5.670;2024-01-15T13:11:46;6.40;99.90
27559;DHT22;15002;52.028;5.670;2024-01-15T13:14:13;6.30;99.90
27559;DHT22;15002;52.028;5.670;2024-01-15T13:16:41;6.20;99.90
27559;DHT22;15002;52.028;5.670;2024-01-15T13:19:10;6.00;99.90
27559;DHT22;15002;52.028;5.670;2024-01-15T13:21:37;6.20;99.90
27559;DHT22;15002;52.028;5.670;2024-01-15T13:24:03;6.20;99.90
27559;DHT22;15002;52.028;5.670;2024-01-15T13:26:34;6.00;99.90
27559;DHT22;15002;52.028;5.670;2024-01-15T13:29:00;6.30;99.90
27559;DHT22;15002;52.028;5.670;2024-01-15T13:31:27;6.10;99.90
27559;DHT22;15002;52.028;5.670;2024-01-15T13:33:53;6.00;99.90
27559;DHT22;15002;52.028;5.670;2024-01-15T13:36:19;5.80;99.90
27559;DHT22;15002;52.028;5.670;2024-01-15T13:38:46;5.90;99.90
27559;DHT22;15002;52.028;5.670;2024-01-15T13:41:12;5.90;99.90
27559;DHT22;15002;52.028;5.670;2024-01-15T13:43:38;5.80;99.90
27559;DHT22;15002;52.028;5.670;2024-01-15T13:46:03;5.90;99.90
27559;DHT22;15002;52.028;5.670;2024-01-15T13:48:30;5.70;99.90
27559;DHT22;15002;52.028;5.670;2024-01-15T13:50:57;5.80;99.90
27559;DHT22;15002;52.028;5.670;2024-01-15T13:53:23;5.80;99.90
27559;DHT22;15002;52.028;5.670;2024-01-15T13:55:48;5.70;99.90
27559;DHT22;15002;52.028;5.670;2024-01-15T13:58:14;5.70;99.90
27559;DHT22;15002;52.028;5.670;2024-01-15T14:00:40;5.70;99.90
27559;DHT22;15002;52.028;5.670;2024-01-15T14:03:05;5.70;99.90
27559;DHT22;15002;52.028;5.670;2024-01-15T14:05:31;5.60;99.90
27559;DHT22;15002;52.028;5.670;2024-01-15T14:07:56;5.60;99.90
27559;DHT22;15002;52.028;5.670;2024-01-15T14:10:22;5.70;99.90
27559;DHT22;15002;52.028;5.670;2024-01-15T14:12:48;5.80;99.90
27559;DHT22;15002;52.028;5.670;2024-01-15T14:15:14;5.70;99.90
27559;DHT22;15002;52.028;5.670;2024-01-15T14:17:39;5.80;99.90
27559;DHT22;15002;52.028;5.670;2024-01-15T14:20:06;5.80;99.90
27559;DHT22;15002;52.028;5.670;2024-01-15T14:22:31;5.90;99.90
27559;DHT22;15002;52.028;5.670;2024-01-15T14:24:57;5.90;99.90
27559;DHT22;15002;52.028;5.670;2024-01-15T14:27:23;5.90;99.90
27559;DHT22;15002;52.028;5.670;2024-01-15T14:29:49;5.70;99.90
27559;DHT22;15002;52.028;5.670;2024-01-15T14:32:14;5.70;99.90
27559;DHT22;15002;52.028;5.670;2024-01-15T14:34:40;5.60;99.90
27559;DHT22;15002;52.028;5.670;2024-01-15T14:37:05;5.80;99.90
27559;DHT22;15002;52.028;5.670;2024-01-15T14:39:31;5.80;99.90
27559;DHT22;15002;52.028;5.670;2024-01-15T14:41:59;5.70;99.90
27559;DHT22;15002;52.028;5.670;2024-01-15T14:44:25;6.10;99.90
27559;DHT22;15002;52.028;5.670;2024-01-15T14:46:51;5.80;99.90
27559;DHT22;15002;52.028;5.670;2024-01-15T14:49:17;6.00;99.90
27559;DHT22;15002;52.028;5.670;2024-01-15T14:51:43;6.00;99.90
27559;DHT22;15002;52.028;5.670;2024-01-15T14:54:10;5.80;99.90
27559;DHT22;15002;52.028;5.670;2024-01-15T14:56:35;5.90;99.90
27559;DHT22;15002;52.028;5.670;2024-01-15T14:59:01;5.90;99.90
27559;DHT22;15002;52.028;5.670;2024-01-15T15:01:27;5.90;99.90
27559;DHT22;15002;52.028;5.670;2024-01-15T15:03:52;6.20;99.90
27559;DHT22;15002;52.028;5.670;2024-01-15T15:06:18;6.20;99.90
27559;DHT22;15002;52.028;5.670;2024-01-15T15:08:44;6.00;99.90
27559;DHT22;15002;52.028;5.670;2024-01-15T15:11:09;5.80;99.90
27559;DHT22;15002;52.028;5.670;2024-01-15T15:13:36;5.90;99.90
27559;DHT22;15002;52.028;5.670;2024-01-15T15:16:02;5.80;99.90
27559;DHT22;15002;52.028;5.670;2024-01-15T15:18:27;5.90;99.90
27559;DHT22;15002;52.028;5.670;2024-01-15T15:20:55;5.70;99.90
27559;DHT22;15002;52.028;5.670;2024-01-15T15:23:21;5.70;99.90
27559;DHT22;15002;52.028;5.670;2024-01-15T15:25:47;5.50;99.90
27559;DHT22;15002;52.028;5.670;2024-01-15T15:28:12;5.50;99.90
27559;DHT22;15002;52.028;5.670;2024-01-15T15:30:40;5.40;99.90
27559;DHT22;15002;52.028;5.670;2024-01-15T15:33:05;5.20;99.90
27559;DHT22;15002;52.028;5.670;2024-01-15T15:35:31;5.20;99.90
27559;DHT22;15002;52.028;5.670;2024-01-15T15:37:57;5.30;99.90
27559;DHT22;15002;52.028;5.670;2024-01-15T15:40:23;5.20;99.90
27559;DHT22;15002;52.028;5.670;2024-01-15T15:42:52;5.10;99.90
27559;DHT22;15002;52.028;5.670;2024-01-15T15:45:18;5.20;99.90
27559;DHT22;15002;52.028;5.670;2024-01-15T15:47:43;5.20;99.90
27559;DHT22;15002;52.028;5.670;2024-01-15T15:50:09;5.20;99.90
27559;DHT22;15002;52.028;5.670;2024-01-15T15:52:35;5.20;99.90
27559;DHT22;15002;52.028;5.670;2024-01-15T15:55:01;5.10;99.90
27559;DHT22;15002;52.028;5.670;2024-01-15T15:57:28;5.10;99.90